createdAt,value
2022-08-17T00:01:40.907Z,95060.63
2022-08-17T00:04:19.569Z,95078.34
2022-08-17T00:06:46.112Z,95078.03
2022-08-17T00:09:18.640Z,95101.97
2022-08-17T00:12:35.009Z,95102.56
2022-08-17T00:14:35.671Z,95093.44
2022-08-17T00:17:02.201Z,95102.06
2022-08-17T00:19:28.733Z,95111.16
2022-08-17T00:22:34.430Z,95108.78
2022-08-17T00:24:43.076Z,95113.34
2022-08-17T00:27:09.567Z,95121.09
2022-08-17T00:29:36.174Z,95119.22
2022-08-17T00:33:22.700Z,95117.03
2022-08-17T00:34:50.242Z,95121.31
2022-08-17T00:37:16.767Z,95115.34
2022-08-17T00:39:44.462Z,95126.47
2022-08-17T00:42:18.851Z,95123.97
2022-08-17T00:44:46.030Z,95120.22
2022-08-17T00:47:13.207Z,95118.66
2022-08-17T00:49:39.878Z,95112.25
2022-08-17T00:52:16.106Z,95111.19
2022-08-17T00:54:46.824Z,95117.63
2022-08-17T00:57:21.317Z,95102.28
2022-08-17T01:00:02.207Z,95099.84
2022-08-17T01:02:41.744Z,95098.28
2022-08-17T01:05:23.108Z,95106.81
2022-08-17T01:07:50.446Z,95123.88
2022-08-17T01:11:00.476Z,95125.22
2022-08-17T01:13:09.360Z,95129.13
2022-08-17T01:15:38.745Z,95121.25
2022-08-17T01:18:08.659Z,95129.41
2022-08-17T01:20:48.129Z,95123.25
2022-08-17T01:23:20.923Z,95121.13
2022-08-17T01:25:57.625Z,95129.97
2022-08-17T01:28:52.647Z,95132.88
2022-08-17T01:31:14.958Z,95135.22
2022-08-17T01:33:41.558Z,95136.84
2022-08-17T01:36:08.208Z,95134.50
2022-08-17T01:38:37.268Z,95139.06
2022-08-17T01:41:10.342Z,95149.13
2022-08-17T01:43:51.925Z,95144.34
2022-08-17T01:46:26.045Z,95147.13
2022-08-17T01:48:53.660Z,95148.41
2022-08-17T01:51:20.797Z,95150.78
2022-08-17T01:53:53.861Z,95145.72
2022-08-17T01:56:24.220Z,95146.56
2022-08-17T01:58:52.233Z,95135.84
2022-08-17T02:01:22.581Z,95130.69
2022-08-17T02:03:56.290Z,95142.00
2022-08-17T02:06:44.869Z,95139.53
2022-08-17T02:09:16.993Z,95130.88
2022-08-17T02:11:45.287Z,95131.88
2022-08-17T02:14:13.311Z,95140.63
2022-08-17T02:16:42.034Z,95128.50
2022-08-17T02:19:12.809Z,95129.19
2022-08-17T02:21:41.280Z,95143.13
2022-08-17T02:24:14.184Z,95145.56
2022-08-17T02:26:40.909Z,95149.84
2022-08-17T02:29:07.448Z,95160.75
2022-08-17T02:31:34.002Z,95160.53
2022-08-17T02:34:03.857Z,95168.28
2022-08-17T02:36:35.530Z,95168.19
2022-08-17T02:39:07.949Z,95158.53
2022-08-17T02:41:35.891Z,95155.63
2022-08-17T02:44:02.616Z,95135.66
2022-08-17T02:46:29.586Z,95121.00
2022-08-17T02:48:56.162Z,95081.91
2022-08-17T02:51:22.718Z,95059.69
2022-08-17T02:53:49.208Z,95070.88
2022-08-17T02:56:15.783Z,95082.19
2022-08-17T02:58:42.351Z,95077.88
2022-08-17T03:01:10.445Z,95068.50
2022-08-17T03:03:38.613Z,95050.94
2022-08-17T03:06:06.945Z,95051.09
2022-08-17T03:08:34.360Z,95075.97
2022-08-17T03:11:00.908Z,95075.72
2022-08-17T03:13:27.405Z,95066.41
2022-08-17T03:15:53.914Z,95067.56
2022-08-17T03:18:25.532Z,95059.72
2022-08-17T03:20:55.594Z,95053.88
2022-08-17T03:23:24.232Z,95051.78
2022-08-17T03:25:53.721Z,95051.97
2022-08-17T03:28:21.881Z,95045.63
2022-08-17T03:30:48.571Z,95040.78
2022-08-17T03:33:16.192Z,95039.34
2022-08-17T03:35:42.889Z,95025.72
2022-08-17T03:38:11.897Z,95020.69
2022-08-17T03:40:57.380Z,95016.00
2022-08-17T03:43:29.405Z,95011.84
2022-08-17T03:45:56.980Z,95010.47
2022-08-17T03:48:24.399Z,94999.81
2022-08-17T03:50:51.578Z,94998.31
2022-08-17T03:53:18.067Z,94991.22
2022-08-17T03:55:44.579Z,94994.53
2022-08-17T03:58:11.113Z,94999.94
2022-08-17T04:00:39.691Z,95010.97
2022-08-17T04:03:06.457Z,95013.25
2022-08-17T04:05:35.529Z,95015.50
2022-08-17T04:08:02.250Z,95008.69
2022-08-17T04:10:33.245Z,95023.88
2022-08-17T04:13:07.972Z,95030.84
2022-08-17T04:15:34.489Z,95035.72
2022-08-17T04:18:01.012Z,95038.38
2022-08-17T04:20:28.236Z,95030.84
2022-08-17T04:23:05.041Z,95028.44
2022-08-17T04:25:34.830Z,95025.41
2022-08-17T04:28:02.037Z,95029.84
2022-08-17T04:30:31.829Z,95020.06
2022-08-17T04:33:05.951Z,95015.66
2022-08-17T04:35:38.701Z,95021.63
2022-08-17T04:38:07.358Z,95011.94
2022-08-17T04:40:33.951Z,95011.59
2022-08-17T04:43:16.478Z,95003.31
2022-08-17T04:45:56.313Z,95009.16
2022-08-17T04:48:36.365Z,95023.53
2022-08-17T04:51:14.337Z,95029.06
2022-08-17T04:53:44.683Z,95022.00
2022-08-17T04:56:17.030Z,95023.91
2022-08-17T04:58:48.340Z,95035.22
2022-08-17T05:01:23.709Z,95034.97
2022-08-17T05:03:56.702Z,95036.28
2022-08-17T05:06:23.978Z,95037.75
2022-08-17T05:08:50.476Z,95035.03
2022-08-17T05:11:17.244Z,95031.00
2022-08-17T05:13:43.766Z,95031.31
2022-08-17T05:16:10.465Z,95040.03
2022-08-17T05:18:37.034Z,95044.38
2022-08-17T05:21:03.960Z,95038.78
2022-08-17T05:23:41.769Z,95041.38
2022-08-17T05:26:11.688Z,95048.97
2022-08-17T05:29:02.491Z,95046.41
2022-08-17T05:31:30.886Z,95067.25
2022-08-17T05:33:58.481Z,95070.03
2022-08-17T05:36:38.129Z,95074.59
2022-08-17T05:39:16.657Z,95078.41
2022-08-17T05:41:45.772Z,95080.41
2022-08-17T05:44:12.263Z,95077.06
2022-08-17T05:46:45.349Z,95072.81
2022-08-17T05:49:17.639Z,95088.19
2022-08-17T05:52:18.851Z,95097.13
2022-08-17T05:55:05.484Z,95088.38
2022-08-17T05:57:49.646Z,95102.84
2022-08-17T06:00:37.274Z,95110.16
2022-08-17T06:03:41.538Z,95105.91
2022-08-17T06:06:25.271Z,95107.53
2022-08-17T06:09:03.776Z,95110.47
2022-08-17T06:12:00.292Z,95108.91
2022-08-17T06:14:47.298Z,95117.53
2022-08-17T06:17:20.709Z,95126.72
2022-08-17T06:20:02.151Z,95137.84
2022-08-17T06:22:41.931Z,95131.47
2022-08-17T06:25:16.986Z,95142.00
2022-08-17T06:27:53.695Z,95144.75
2022-08-17T06:30:59.218Z,95142.63
2022-08-17T06:33:28.119Z,95144.22
2022-08-17T06:36:16.943Z,95132.09
2022-08-17T06:39:07.437Z,95140.72
2022-08-17T06:41:41.625Z,95134.81
2022-08-17T06:44:10.965Z,95142.34
2022-08-17T06:46:43.142Z,95127.84
2022-08-17T06:49:27.865Z,95130.00
2022-08-17T06:52:00.180Z,95127.88
2022-08-17T06:54:53.995Z,95137.56
2022-08-17T06:57:28.609Z,95149.38
2022-08-17T07:00:07.970Z,95150.69
2022-08-17T07:02:53.207Z,95156.38
2022-08-17T07:05:25.208Z,95151.00
2022-08-17T07:08:08.314Z,95148.63
2022-08-17T07:10:42.900Z,95149.41
2022-08-17T07:13:51.162Z,95152.38
2022-08-17T07:16:32.791Z,95152.06
2022-08-17T07:18:59.449Z,95148.81
2022-08-17T07:21:46.181Z,95149.91
2022-08-17T07:24:29.547Z,95179.50
2022-08-17T07:27:16.502Z,95176.31
2022-08-17T07:29:50.744Z,95175.75
2022-08-17T07:32:22.730Z,95180.31
2022-08-17T07:35:07.561Z,95184.13
2022-08-17T07:37:39.422Z,95173.56
2022-08-17T07:40:16.953Z,95161.22
2022-08-17T07:43:02.156Z,95159.06
2022-08-17T07:45:33.599Z,95146.09
2022-08-17T07:48:00.082Z,95151.19
2022-08-17T07:50:29.317Z,95147.16
2022-08-17T07:52:55.848Z,95145.16
2022-08-17T07:55:31.488Z,95150.19
2022-08-17T07:57:59.444Z,95157.75
2022-08-17T08:00:32.090Z,95155.06
2022-08-17T08:03:13.919Z,95161.66
2022-08-17T08:06:21.191Z,95173.59
2022-08-17T08:08:53.464Z,95176.81
2022-08-17T08:11:35.310Z,95176.81
2022-08-17T08:14:28.808Z,95170.34
2022-08-17T08:17:09.294Z,95169.84
2022-08-17T08:19:36.187Z,95164.97
2022-08-17T08:22:12.596Z,95166.59
2022-08-17T08:24:54.114Z,95163.63
2022-08-17T08:27:36.537Z,95163.88
2022-08-17T08:30:30.867Z,95164.97
2022-08-17T08:33:49.274Z,95175.47
2022-08-17T08:36:56.886Z,95188.94
2022-08-17T08:40:03.400Z,95184.91
2022-08-17T08:42:56.825Z,95179.78
2022-08-17T08:45:49.521Z,95175.69
2022-08-17T08:48:57.110Z,95175.69
2022-08-17T08:51:41.388Z,95175.63
2022-08-17T08:54:26.889Z,95179.47
2022-08-17T08:57:36.285Z,95172.72
2022-08-17T09:00:16.859Z,95177.91
2022-08-17T09:03:04.747Z,95173.84
2022-08-17T09:05:39.442Z,95175.09
2022-08-17T09:08:17.669Z,95169.22
2022-08-17T09:10:57.071Z,95164.13
2022-08-17T09:13:32.311Z,95161.63
2022-08-17T09:16:08.891Z,95165.56
2022-08-17T09:19:02.377Z,95150.84
2022-08-17T09:21:48.536Z,95151.03
2022-08-17T09:24:43.892Z,95166.28
2022-08-17T09:27:28.607Z,95170.88
2022-08-17T09:30:02.228Z,95175.03
2022-08-17T09:32:38.864Z,95185.81
2022-08-17T09:35:23.894Z,95174.84
2022-08-17T09:37:58.875Z,95174.50
2022-08-17T09:40:46.628Z,95160.44
2022-08-17T09:43:38.687Z,95156.25
2022-08-17T09:46:17.293Z,95161.81
2022-08-17T09:48:51.098Z,95161.75
2022-08-17T09:51:36.277Z,95171.41
2022-08-17T09:54:21.342Z,95164.56
2022-08-17T09:57:28.655Z,95171.34
2022-08-17T10:00:04.639Z,95159.09
2022-08-17T10:02:46.211Z,95167.16
2022-08-17T10:05:22.560Z,95164.03
2022-08-17T10:08:09.236Z,95168.19
2022-08-17T10:10:56.280Z,95168.25
2022-08-17T10:13:37.168Z,95165.38
2022-08-17T10:16:33.080Z,95168.72
2022-08-17T10:19:12.338Z,95169.28
2022-08-17T10:21:43.394Z,95151.97
2022-08-17T10:24:23.622Z,95153.38
2022-08-17T10:26:57.134Z,95153.78
2022-08-17T10:29:48.984Z,95147.88
2022-08-17T10:32:27.294Z,95147.34
2022-08-17T10:35:25.490Z,95139.91
2022-08-17T10:38:29.562Z,95129.09
2022-08-17T10:41:24.349Z,95129.88
2022-08-17T10:44:39.557Z,95125.78
2022-08-17T10:47:11.375Z,95116.84
2022-08-17T10:49:46.612Z,95110.91
2022-08-17T10:52:27.974Z,95104.25
2022-08-17T10:54:58.801Z,95106.44
2022-08-17T10:57:39.725Z,95104.19
2022-08-17T11:00:08.345Z,95112.44
2022-08-17T11:02:40.781Z,95111.41
2022-08-17T11:05:24.466Z,95108.56
2022-08-17T11:08:30.624Z,95099.13
2022-08-17T11:11:09.123Z,95099.72
2022-08-17T11:14:09.686Z,95088.03
2022-08-17T11:16:45.926Z,95094.59
2022-08-17T11:19:57.092Z,95089.69
2022-08-17T11:22:42.051Z,95100.00
2022-08-17T11:25:18.209Z,95088.22
2022-08-17T11:27:51.188Z,95097.22
2022-08-17T11:30:41.495Z,95094.94
2022-08-17T11:33:43.094Z,95103.38
2022-08-17T11:36:24.229Z,95100.88
2022-08-17T11:39:28.342Z,95094.44
2022-08-17T11:42:05.788Z,95094.38
2022-08-17T11:44:53.077Z,95095.47
2022-08-17T11:47:39.845Z,95083.16
2022-08-17T11:50:12.149Z,95079.19
2022-08-17T11:52:45.004Z,95067.34
2022-08-17T11:55:39.571Z,95065.09
2022-08-17T11:58:30.541Z,95060.31
2022-08-17T12:01:01.500Z,95065.63
2022-08-17T12:03:30.816Z,95058.78
2022-08-17T12:06:10.970Z,95056.56
2022-08-17T12:08:43.713Z,95053.16
2022-08-17T12:11:55.575Z,95048.84
2022-08-17T12:14:07.131Z,95035.84
2022-08-17T12:16:33.669Z,95030.03
2022-08-17T12:19:02.667Z,95035.94
2022-08-17T12:21:47.046Z,95019.41
2022-08-17T12:24:31.776Z,95011.75
2022-08-17T12:27:01.965Z,95024.38
2022-08-17T12:29:35.455Z,95037.88
2022-08-17T12:32:12.767Z,95031.28
2022-08-17T12:34:42.381Z,95028.00
2022-08-17T12:37:22.112Z,95025.47
2022-08-17T12:40:16.653Z,95021.41
2022-08-17T12:42:54.898Z,95024.47
2022-08-17T12:45:26.018Z,95006.78
2022-08-17T12:48:21.479Z,95005.09
2022-08-17T12:50:50.541Z,94999.84
2022-08-17T12:53:25.348Z,94992.53
2022-08-17T12:55:53.684Z,94996.75
2022-08-17T12:58:33.952Z,94980.47
2022-08-17T13:01:04.977Z,94979.25
2022-08-17T13:03:39.649Z,94973.38
2022-08-17T13:06:08.981Z,94962.16
2022-08-17T13:08:41.251Z,94952.88
2022-08-17T13:11:15.804Z,94960.38
2022-08-17T13:13:48.876Z,94947.19
2022-08-17T13:16:19.423Z,94947.66
2022-08-17T13:19:09.666Z,94939.44
2022-08-17T13:21:37.088Z,94939.59
2022-08-17T13:24:12.534Z,94929.06
2022-08-17T13:26:42.687Z,94938.34
2022-08-17T13:29:36.765Z,94935.44
2022-08-17T13:32:06.036Z,94936.84
2022-08-17T13:35:12.880Z,94931.63
2022-08-17T13:37:36.570Z,94925.72
2022-08-17T13:40:09.203Z,94919.97
2022-08-17T13:42:51.529Z,94929.75
2022-08-17T13:45:36.203Z,94925.63
2022-08-17T13:48:12.568Z,94933.06
2022-08-17T13:50:49.496Z,94938.75
2022-08-17T13:53:20.719Z,94947.53
2022-08-17T13:55:57.969Z,94953.81
2022-08-17T13:58:32.079Z,94942.75
2022-08-17T14:01:52.858Z,94953.31
2022-08-17T14:04:24.034Z,94953.31
2022-08-17T14:07:08.405Z,94946.59
2022-08-17T14:09:39.643Z,94934.91
2022-08-17T14:12:14.288Z,94938.94
2022-08-17T14:14:40.843Z,94936.69
2022-08-17T14:17:07.865Z,94933.97
2022-08-17T14:19:36.446Z,94934.13
2022-08-17T14:22:04.746Z,94935.00
2022-08-17T14:24:34.707Z,94932.84
2022-08-17T14:27:03.883Z,94930.41
2022-08-17T14:29:32.922Z,94929.47
2022-08-17T14:32:07.550Z,94929.66
2022-08-17T14:34:34.184Z,94916.84
2022-08-17T14:37:00.676Z,94913.94
2022-08-17T14:39:27.244Z,94916.53
2022-08-17T14:41:55.716Z,94921.44
2022-08-17T14:44:22.247Z,94922.28
2022-08-17T14:46:48.757Z,94918.94
2022-08-17T14:49:15.254Z,94918.44
2022-08-17T14:51:43.900Z,94905.44
2022-08-17T14:54:12.073Z,94903.72
2022-08-17T14:57:11.561Z,94901.66
2022-08-17T14:59:45.532Z,94894.16
2022-08-17T15:02:12.366Z,94889.00
2022-08-17T15:04:44.867Z,94886.78
2022-08-17T15:07:12.163Z,94886.69
2022-08-17T15:09:38.689Z,94881.41
2022-08-17T15:12:05.621Z,94884.47
2022-08-17T15:14:33.372Z,94885.09
2022-08-17T15:16:59.842Z,94883.47
2022-08-17T15:19:26.388Z,94881.75
2022-08-17T15:21:53.025Z,94875.34
2022-08-17T15:24:19.761Z,94874.09
2022-08-17T15:26:46.258Z,94853.63
2022-08-17T15:29:12.867Z,94866.03
2022-08-17T15:31:39.347Z,94869.03
2022-08-17T15:34:05.944Z,94864.59
2022-08-17T15:36:34.604Z,94859.56
2022-08-17T15:39:01.133Z,94847.09
2022-08-17T15:41:27.685Z,94850.50
2022-08-17T15:43:54.912Z,94834.59
2022-08-17T15:46:24.553Z,94833.75
2022-08-17T15:48:56.411Z,94836.28
2022-08-17T15:51:29.421Z,94832.59
2022-08-17T15:54:04.604Z,94834.19
2022-08-17T15:56:45.493Z,94808.06
2022-08-17T15:59:12.062Z,94794.97
2022-08-17T16:03:01.396Z,94778.53
2022-08-17T16:04:29.920Z,94779.28
2022-08-17T16:06:58.361Z,94812.81
2022-08-17T16:09:25.059Z,94842.59
2022-08-17T16:11:52.106Z,94847.47
2022-08-17T16:14:22.581Z,94860.97
2022-08-17T16:16:50.551Z,94881.56
2022-08-17T16:19:17.125Z,94877.25
2022-08-17T16:21:43.637Z,94852.03
2022-08-17T16:24:13.203Z,94850.69
2022-08-17T16:26:41.261Z,94874.59
2022-08-17T16:29:08.414Z,94918.97
2022-08-17T16:31:35.335Z,94994.50
2022-08-17T16:34:17.924Z,95075.53
2022-08-17T16:36:54.956Z,95105.06
2022-08-17T16:39:27.866Z,95125.78
2022-08-17T16:41:56.196Z,95176.41
2022-08-17T16:44:22.914Z,95233.38
2022-08-17T16:46:49.534Z,95244.56
2022-08-17T16:49:29.680Z,95267.91
2022-08-17T16:52:04.508Z,95258.56
2022-08-17T16:54:31.071Z,95296.81
2022-08-17T16:56:57.620Z,95302.06
2022-08-17T16:59:31.382Z,95298.47
2022-08-17T17:02:06.947Z,95297.19
2022-08-17T17:04:45.986Z,95298.78
2022-08-17T17:07:46.128Z,95277.22
2022-08-17T17:10:18.098Z,95269.66
2022-08-17T17:13:03.059Z,95283.56
2022-08-17T17:15:59.425Z,95302.50
2022-08-17T17:19:04.427Z,95317.75
2022-08-17T17:21:43.380Z,95327.06
2022-08-17T17:24:28.881Z,95332.03
2022-08-17T17:27:12.401Z,95349.66
2022-08-17T17:29:59.287Z,95350.78
2022-08-17T17:32:37.268Z,95364.78
2022-08-17T17:35:20.302Z,95361.47
2022-08-17T17:37:47.459Z,95356.34
2022-08-17T17:40:23.501Z,95353.22
2022-08-17T17:42:55.227Z,95355.22
2022-08-17T17:45:25.477Z,95367.88
2022-08-17T17:47:53.112Z,95371.91
2022-08-17T17:50:32.598Z,95384.59
2022-08-17T17:53:07.039Z,95384.88
2022-08-17T17:55:56.020Z,95399.19
2022-08-17T17:58:38.490Z,95399.88
2022-08-17T18:01:04.937Z,95413.38
2022-08-17T18:03:48.452Z,95415.97
2022-08-17T18:06:36.588Z,95422.16
2022-08-17T18:09:28.279Z,95431.22
2022-08-17T18:12:11.528Z,95424.72
2022-08-17T18:14:57.230Z,95421.44
2022-08-17T18:17:24.266Z,95425.31
2022-08-17T18:19:54.697Z,95413.91
2022-08-17T18:22:23.111Z,95418.56
2022-08-17T18:24:52.056Z,95426.47
2022-08-17T18:27:30.003Z,95419.88
2022-08-17T18:29:59.961Z,95434.66
2022-08-17T18:32:38.965Z,95435.94
2022-08-17T18:35:08.508Z,95430.75
2022-08-17T18:38:19.970Z,95422.16
2022-08-17T18:40:59.362Z,95419.88
2022-08-17T18:43:53.093Z,95427.34
2022-08-17T18:46:31.175Z,95440.50
2022-08-17T18:49:04.636Z,95455.28
2022-08-17T18:51:42.682Z,95481.44
2022-08-17T18:54:24.494Z,95470.41
2022-08-17T18:56:59.450Z,95460.16
2022-08-17T18:59:29.107Z,95466.31
2022-08-17T19:02:18.684Z,95477.50
2022-08-17T19:05:01.275Z,95483.16
2022-08-17T19:07:44.620Z,95486.81
2022-08-17T19:10:22.877Z,95479.06
2022-08-17T19:13:00.615Z,95470.34
2022-08-17T19:15:37.716Z,95481.03
2022-08-17T19:18:36.802Z,95483.28
2022-08-17T19:21:33.350Z,95479.13
2022-08-17T19:24:23.329Z,95471.16
2022-08-17T19:26:58.538Z,95470.00
2022-08-17T19:29:37.017Z,95466.44
2022-08-17T19:32:07.266Z,95460.78
2022-08-17T19:34:36.530Z,95463.56
2022-08-17T19:37:13.992Z,95467.19
2022-08-17T19:39:56.053Z,95481.81
2022-08-17T19:43:00.447Z,95487.38
2022-08-17T19:45:39.819Z,95491.75
2022-08-17T19:48:17.520Z,95504.38
2022-08-17T19:50:54.685Z,95483.38
2022-08-17T19:54:07.343Z,95484.28
2022-08-17T19:57:15.443Z,95493.56
2022-08-17T20:00:02.676Z,95499.44
2022-08-17T20:02:40.900Z,95499.84
2022-08-17T20:05:19.693Z,95487.47
2022-08-17T20:07:53.136Z,95490.44
2022-08-17T20:11:07.035Z,95473.22
2022-08-17T20:13:40.615Z,95464.09
2022-08-17T20:16:09.928Z,95459.19
2022-08-17T20:18:49.352Z,95462.53
2022-08-17T20:21:40.929Z,95457.84
2022-08-17T20:24:28.337Z,95443.03
2022-08-17T20:27:17.314Z,95433.28
2022-08-17T20:30:31.350Z,95425.84
2022-08-17T20:32:59.672Z,95431.03
2022-08-17T20:36:04.644Z,95441.28
2022-08-17T20:38:45.989Z,95435.56
2022-08-17T20:41:25.176Z,95439.25
2022-08-17T20:43:57.630Z,95441.63
2022-08-17T20:46:36.218Z,95424.44
2022-08-17T20:49:08.822Z,95416.94
2022-08-17T20:52:01.282Z,95396.28
2022-08-17T20:54:54.654Z,95399.03
2022-08-17T20:57:33.043Z,95402.81
2022-08-17T21:00:10.979Z,95399.16
2022-08-17T21:02:37.523Z,95406.00
2022-08-17T21:05:25.696Z,95404.75
2022-08-17T21:08:10.392Z,95406.28
2022-08-17T21:10:37.574Z,95402.41
2022-08-17T21:13:13.129Z,95405.78
2022-08-17T21:18:39.235Z,95405.78
2022-08-17T21:21:36.580Z,95404.03
2022-08-17T21:24:03.095Z,95410.59
2022-08-17T21:27:03.200Z,95393.88
2022-08-17T21:29:33.936Z,95399.13
2022-08-17T21:32:06.852Z,95395.78
2022-08-17T21:34:41.085Z,95396.44
2022-08-17T21:37:23.366Z,95388.66
2022-08-17T21:40:16.194Z,95389.84
2022-08-17T21:42:49.951Z,95385.50
2022-08-17T21:45:42.985Z,95388.75
2022-08-17T21:48:16.830Z,95381.53
2022-08-17T21:50:56.348Z,95360.63
2022-08-17T21:53:33.168Z,95336.97
2022-08-17T21:56:00.779Z,95303.91
2022-08-17T21:58:34.217Z,95290.06
2022-08-17T22:01:15.667Z,95304.22
2022-08-17T22:03:42.402Z,95339.03
2022-08-17T22:06:26.207Z,95373.88
2022-08-17T22:09:11.924Z,95387.69
2022-08-17T22:11:56.988Z,95400.16
2022-08-17T22:14:25.603Z,95391.13
2022-08-17T22:17:16.629Z,95400.16
2022-08-17T22:19:58.130Z,95391.69
2022-08-17T22:22:36.572Z,95388.66
2022-08-17T22:25:07.766Z,95394.44
2022-08-17T22:27:53.434Z,95396.94
2022-08-17T22:30:32.235Z,95397.03
2022-08-17T22:33:01.327Z,95395.56
2022-08-17T22:35:46.067Z,95384.25
2022-08-17T22:38:19.088Z,95384.06
2022-08-17T22:40:49.808Z,95383.81
2022-08-17T22:43:19.936Z,95380.38
2022-08-17T22:45:57.125Z,95372.84
2022-08-17T22:48:27.854Z,95384.31
2022-08-17T22:51:13.719Z,95367.69
2022-08-17T22:53:54.629Z,95372.88
2022-08-17T22:56:24.814Z,95371.81
2022-08-17T22:58:59.082Z,95370.50
2022-08-17T23:01:32.598Z,95365.88
2022-08-17T23:04:05.840Z,95367.66
2022-08-17T23:06:35.002Z,95372.63
2022-08-17T23:09:04.388Z,95379.19
2022-08-17T23:11:49.476Z,95377.63
2022-08-17T23:14:19.959Z,95373.94
2022-08-17T23:16:47.391Z,95377.22
2022-08-17T23:19:17.742Z,95377.91
2022-08-17T23:21:45.692Z,95388.03
2022-08-17T23:24:22.624Z,95382.72
2022-08-17T23:26:49.313Z,95385.13
2022-08-17T23:29:15.879Z,95386.88
2022-08-17T23:31:42.532Z,95390.69
2022-08-17T23:34:13.162Z,95390.72
2022-08-17T23:36:39.655Z,95399.38
2022-08-17T23:39:07.034Z,95388.66
2022-08-17T23:41:38.269Z,95389.00
2022-08-17T23:44:06.406Z,95384.25
2022-08-17T23:46:32.981Z,95384.59
2022-08-17T23:48:59.618Z,95378.09
2022-08-17T23:51:37.947Z,95378.44
2022-08-17T23:54:11.390Z,95378.97
2022-08-17T23:56:38.129Z,95378.03
2022-08-17T23:59:04.674Z,95384.09
